Gällivare Airport

ESNG · 北博滕, 瑞典

罗盘
风向 的 风向 的 风向 到 风向 050° Gällivare Airport 12/30
风: 13 kt, 4 beaufort

5 kt

12 kt
改变
0 1.000 2.000 3.000 4.000 5.000
BKN 1.700 ft
OVC 2.200 ft
METAR ESPE 091550Z AUTO 05013KT 020V080 9999 -SN BKN017/// OVC022/// M06/M08 Q1014

METAR Gällivare Airport - ESNG/GEV

Gällivare Airport是,瑞典中的中型机场。 该机场有一条跑道: 12/30. 该领域的国际民航组织标志是ESNG 它的国际航空运输协会代码是GEV.

这份报告是针对2022年12月9日 16:50, 当地时间在Vidsel Air Base进行的。

机场观察

风向为050°,速度为13 kt。 风向在020°和080°之间变化。

可见度为10 km 或者更多。

有碎云在1.700 ft的高度 和 乌云密布在2.200 ft的高度。 破损或更高的上限为1.700 ft。

当前天气为光 雪。 温度为-6 °C,阵风为-16 °C。 露点为-8 °C,相对湿度为86%。 海平面上的气压为1014 hPa (QNH)。

白天

今天,太阳从10:21升起,在12:36降落。 这适用于Gällivare Airport,世界夏令时可能有所不同。 当地时间与世界标准时间之间的时差为+1 小时。 当前,没有夏令时有效。

公司介绍

我们没有关于这个机场的公司信息。

体会

到Vliegles.nl去找飞行课程,跳伞和其他飞行体验。 浏览页面,了解Gällivare Airport附近所有可用的活动。 你也可以使用搜索功能来寻找你所在地附近的特定飞行课程、跳伞或其他飞行体验。

跑道

Id 标题 侧风 逆风 侧风 %
12/30 117°-297° 12 kt 5 kt 92 %

逆风成分最大的方向会被突出显示,并用于横风计算。 这并不一定意味着这个方向在使用。

乌云

1.700 ft BKN 碎云
2.200 ft OVC 乌云密布

温度 & 天气

天气 光 雪
温度 -6 °C
露点 -8 °C
相对湿度 86%
风寒 -16 °C
Kp-index 1 (0-9)

白天

日出
09:48 (16:41)
中午
11:31
日落
13:14

小工具

你想在你的网站上有一个关于Gällivare Airport的当前航空天气(METAR)的小部件吗?

显示HTML代码

我们和第三方通过cookies跟踪您在我们网站上的互联网行为。如果你继续,我们认为你同意我们的饼干政策